Festivo — EAEQ — position and weather

sailwx.info

Track history (hours):
 
Tides and Currents Weather Stations Pressure Air Temp Water Temp Dewpoint Dewpoint Depression Visibility Wind Speed Wind Dir Waves Ship Positions

Festivo

Last reported at 2014-Dec-20 16:33 UTC. Time now 2014-Dec-22 22:39 UTC.
Position N 35°55' W 005°14'.

Length 136 m; draft 4.5 m.

Type: Cargo ship. MMSI: 225410000.

Date/timePositionNaut miles runAvg speedWind from/ knotsBaromVisibWave heightAir tempDewpointWater temp
2014-Dec-20 16:33N 35°55' W 005°14'4 4.2
2014-Dec-20 15:32N 35°54' W 005°19'0 0.0
2014-Dec-20 14:29N 35°54' W 005°19'0 0.0
2014-Dec-20 13:32N 35°54' W 005°19'0 0.0
2014-Dec-20 12:32N 35°54' W 005°19'0 0.0
2014-Dec-20 11:32N 35°54' W 005°19'0 0.0
2014-Dec-20 10:32N 35°54' W 005°19'0 0.0
2014-Dec-20 09:32N 35°54' W 005°19'0 0.0
2014-Dec-20 08:32N 35°54' W 005°19'0 0.0
2014-Dec-20 07:32N 35°54' W 005°19'0 0.0
2014-Dec-20 06:33N 35°54' W 005°19'7 7.3
2014-Dec-20 05:33N 35°59' W 005°13'5 0.1
2014-Dec-18 10:33N 35°56' W 005°17'3 2.7
2014-Dec-18 09:32N 35°54' W 005°19'0 0.0
2014-Dec-18 08:32N 35°54' W 005°19'0 0.0
2014-Dec-18 07:29N 35°54' W 005°19'1 1.3
2014-Dec-18 06:34N 35°55' W 005°18'7 6.6
2014-Dec-18 05:33N 35°59' W 005°12'  
2014-Dec-13 16:34N 35°56' W 005°16'4 3.5
2014-Dec-13 15:33N 35°54' W 005°19'0 0.0
2014-Dec-13 14:33N 35°54' W 005°19'0 0.0
2014-Dec-13 13:30N 35°54' W 005°19'0 0.0
2014-Dec-13 12:33N 35°54' W 005°19'0 0.0
2014-Dec-13 11:33N 35°54' W 005°19'0 0.0
2014-Dec-13 10:33N 35°54' W 005°19'0 0.0
2014-Dec-13 09:33N 35°54' W 005°19'0 0.0
2014-Dec-13 08:30N 35°54' W 005°19'0 0.0
2014-Dec-13 07:33N 35°54' W 005°19'0 0.0
2014-Dec-13 06:33N 35°54' W 005°19'5 5.2
2014-Dec-13 05:33N 35°58' W 005°15'4 0.1
2014-Dec-11 10:16N 35°60' W 005°11'810.7
2014-Dec-11 09:34N 35°55' W 005°18'2 1.6
2014-Dec-11 08:32N 35°54' W 005°19'0 0.0
2014-Dec-11 07:32N 35°54' W 005°19'0 0.0
2014-Dec-11 06:32N 35°54' W 005°19'1 0.7
2014-Dec-11 05:34N 35°54' W 005°19'8 7.7
2014-Dec-11 04:33N 35°60' W 005°13'  
Track history (hours):
 
Tides and Currents Weather Stations Pressure Air Temp Water Temp Dewpoint Dewpoint Depression Visibility Wind Speed Wind Dir Waves Ship Positions

Festivo

Last reported at 2014-Dec-20 16:33 UTC. Time now 2014-Dec-22 22:39 UTC.
Position N 35°55' W 005°14'.

Length 136 m; draft 4.5 m.

Type: Cargo ship. MMSI: 225410000.

Date/timePositionNaut miles runAvg speedWind from/ knotsBaromVisibWave heightAir tempDewpointWater temp
2014-Dec-20 16:33N 35°55' W 005°14'4 4.2
2014-Dec-20 15:32N 35°54' W 005°19'0 0.0
2014-Dec-20 14:29N 35°54' W 005°19'0 0.0
2014-Dec-20 13:32N 35°54' W 005°19'0 0.0
2014-Dec-20 12:32N 35°54' W 005°19'0 0.0
2014-Dec-20 11:32N 35°54' W 005°19'0 0.0
2014-Dec-20 10:32N 35°54' W 005°19'0 0.0
2014-Dec-20 09:32N 35°54' W 005°19'0 0.0
2014-Dec-20 08:32N 35°54' W 005°19'0 0.0
2014-Dec-20 07:32N 35°54' W 005°19'0 0.0
2014-Dec-20 06:33N 35°54' W 005°19'7 7.3
2014-Dec-20 05:33N 35°59' W 005°13'5 0.1
2014-Dec-18 10:33N 35°56' W 005°17'3 2.7
2014-Dec-18 09:32N 35°54' W 005°19'0 0.0
2014-Dec-18 08:32N 35°54' W 005°19'0 0.0
2014-Dec-18 07:29N 35°54' W 005°19'1 1.3
2014-Dec-18 06:34N 35°55' W 005°18'7 6.6
2014-Dec-18 05:33N 35°59' W 005°12'  
2014-Dec-13 16:34N 35°56' W 005°16'4 3.5
2014-Dec-13 15:33N 35°54' W 005°19'0 0.0
2014-Dec-13 14:33N 35°54' W 005°19'0 0.0
2014-Dec-13 13:30N 35°54' W 005°19'0 0.0
2014-Dec-13 12:33N 35°54' W 005°19'0 0.0
2014-Dec-13 11:33N 35°54' W 005°19'0 0.0
2014-Dec-13 10:33N 35°54' W 005°19'0 0.0
2014-Dec-13 09:33N 35°54' W 005°19'0 0.0
2014-Dec-13 08:30N 35°54' W 005°19'0 0.0
2014-Dec-13 07:33N 35°54' W 005°19'0 0.0
2014-Dec-13 06:33N 35°54' W 005°19'5 5.2
2014-Dec-13 05:33N 35°58' W 005°15'4 0.1
2014-Dec-11 10:16N 35°60' W 005°11'810.7
2014-Dec-11 09:34N 35°55' W 005°18'2 1.6
2014-Dec-11 08:32N 35°54' W 005°19'0 0.0
2014-Dec-11 07:32N 35°54' W 005°19'0 0.0
2014-Dec-11 06:32N 35°54' W 005°19'1 0.7
2014-Dec-11 05:34N 35°54' W 005°19'8 7.7
2014-Dec-11 04:33N 35°60' W 005°13'  

Dump ship's entire track history